Palm Beach International Airport
KPBI : now visible

Airfield :











YOU CAN JOIN US ON...

 
LOGIN :

Register | Disclaimer

   EN    FR    IT 

 









Legend :    VFR   Marginal VFR   IFR   Intensive IFR   Very Intensive IFR
Visi :
Ceiling :
>= 8 km
>= 3000ft
5 to 8 km
1000 to 3000 ft
1500m to 5 km
500 to 1000 ft
800 to 1500m
200 to 500 ft
< 800m
< 200 ft
Symbols :   Thunderstorms  Fog  Heavy snow  Heavy precipitations  Wind > 20 kt







- Airport Elevation : 19 ft
- IATA code : PBI


KPBI - Palm Beach International

CURRENT METAR :
  • 162153Z 01009KT 10SM SCT026CB SCT040 BKN055 30/25 A2989 RMK AO2 LTG DSNT NW RAB11E26 SLP122 CB S-SW MOV SE CB DSNT N NW P0000 T03000250 $

EXPIRED METARs :
  • 162053Z 07008KT 10SM SCT033CB BKN041 BKN060 31/24 A2989 RMK AO2 RAB31E38 SLP121 CB S MOV SE CB DSNT N NW P0000 60000 T03060239 56016 $
  • 161953Z COR 06007KT 10SM BKN039 BKN050 BKN070 31/24 A2990 RMK AO2 SLP125 T03060239 $

TAF KPBI
Valid from the 16 at 21:00 until the 17 at 18:00 UTC


162043Z 1621/1718 32010KT P6SM VCTS BKN040CB BKN070
FM170100 34006KT P6SM SCT030 SCT050
FM171400 34010KT P6SM SCT025 SCT250
No reported NOTAMs for that airfield.



MET'MAP, your aeronautical weather chart ! - Copyright ORBIFLY December 2007 - Disclaimer

ORBIFLY MET'MAP TEAM :

Programming & Development : Alexandra Zaïnal
Concept & Development : Baudouin d'Aumeries
Co-Development & Prog : Marc-Olivier Méhu
Technical & hardware support : Manuel Goepfert

Contact : metmap@orbifly.com




SOURCES & CREDITS :

   NOAA       Earth
Advisory